sensor_id;sensor_type;location;lat;lon;timestamp;pressure;altitude;pressure_sealevel;temperature;humidity
76052;BME280;64751;48.708;9.710;2024-02-15T00:01:21;98071.41;;;8.12;100.00
76052;BME280;64751;48.708;9.710;2024-02-15T00:03:48;98078.00;;;8.14;100.00
76052;BME280;64751;48.708;9.710;2024-02-15T00:06:21;98074.84;;;8.12;100.00
76052;BME280;64751;48.708;9.710;2024-02-15T00:08:53;98078.28;;;8.13;100.00
76052;BME280;64751;48.708;9.710;2024-02-15T00:11:21;98075.34;;;8.09;100.00
76052;BME280;64751;48.708;9.710;2024-02-15T00:13:55;98079.28;;;8.12;100.00
76052;BME280;64751;48.708;9.710;2024-02-15T00:16:22;98074.03;;;8.12;100.00
76052;BME280;64751;48.708;9.710;2024-02-15T00:18:55;98073.00;;;8.13;100.00
76052;BME280;64751;48.708;9.710;2024-02-15T00:21:23;98075.94;;;8.16;100.00
76052;BME280;64751;48.708;9.710;2024-02-15T00:23:55;98067.50;;;8.14;100.00
76052;BME280;64751;48.708;9.710;2024-02-15T00:26:30;98066.47;;;8.15;100.00
76052;BME280;64751;48.708;9.710;2024-02-15T00:28:59;98074.66;;;8.19;100.00
76052;BME280;64751;48.708;9.710;2024-02-15T00:31:32;98080.97;;;8.18;100.00
76052;BME280;64751;48.708;9.710;2024-02-15T00:34:05;98074.66;;;8.19;100.00
76052;BME280;64751;48.708;9.710;2024-02-15T00:36:37;98079.16;;;8.23;100.00
76052;BME280;64751;48.708;9.710;2024-02-15T00:39:05;98078.13;;;8.24;100.00
76052;BME280;64751;48.708;9.710;2024-02-15T00:41:39;98081.00;;;8.23;100.00
76052;BME280;64751;48.708;9.710;2024-02-15T00:44:09;98074.41;;;8.20;100.00
76052;BME280;64751;48.708;9.710;2024-02-15T00:46:37;98088.44;;;8.26;100.00
76052;BME280;64751;48.708;9.710;2024-02-15T00:49:10;98080.16;;;8.17;100.00
76052;BME280;64751;48.708;9.710;2024-02-15T00:51:37;98095.50;;;8.25;100.00
76052;BME280;64751;48.708;9.710;2024-02-15T00:54:09;98099.19;;;8.24;100.00
76052;BME280;64751;48.708;9.710;2024-02-15T00:56:37;98087.06;;;8.23;100.00
76052;BME280;64751;48.708;9.710;2024-02-15T00:59:05;98085.81;;;8.26;100.00
76052;BME280;64751;48.708;9.710;2024-02-15T01:01:34;98081.34;;;8.26;100.00
76052;BME280;64751;48.708;9.710;2024-02-15T01:04:08;98083.72;;;8.28;100.00
76052;BME280;64751;48.708;9.710;2024-02-15T01:06:41;98072.38;;;8.27;100.00
76052;BME280;64751;48.708;9.710;2024-02-15T01:09:14;98074.00;;;8.28;100.00
76052;BME280;64751;48.708;9.710;2024-02-15T01:11:47;98069.53;;;8.29;100.00
76052;BME280;64751;48.708;9.710;2024-02-15T01:14:14;98071.91;;;8.30;100.00
76052;BME280;64751;48.708;9.710;2024-02-15T01:16:48;98071.91;;;8.30;100.00
76052;BME280;64751;48.708;9.710;2024-02-15T01:19:17;98082.91;;;8.27;100.00
76052;BME280;64751;48.708;9.710;2024-02-15T01:21:44;98082.69;;;8.29;100.00
76052;BME280;64751;48.708;9.710;2024-02-15T01:24:17;98081.63;;;8.30;100.00
76052;BME280;64751;48.708;9.710;2024-02-15T01:26:45;98073.44;;;8.26;100.00
76052;BME280;64751;48.708;9.710;2024-02-15T01:29:13;98076.06;;;8.26;100.00
76052;BME280;64751;48.708;9.710;2024-02-15T01:31:46;98076.88;;;8.27;100.00
76052;BME280;64751;48.708;9.710;2024-02-15T01:34:15;98085.53;;;8.27;100.00
76052;BME280;64751;48.708;9.710;2024-02-15T01:36:48;98075.50;;;8.24;100.00
76052;BME280;64751;48.708;9.710;2024-02-15T01:39:21;98068.91;;;8.22;100.00
76052;BME280;64751;48.708;9.710;2024-02-15T01:41:53;98071.03;;;8.25;100.00
76052;BME280;64751;48.708;9.710;2024-02-15T01:44:22;98060.75;;;8.23;100.00
76052;BME280;64751;48.708;9.710;2024-02-15T01:46:50;98040.97;;;8.16;100.00
76052;BME280;64751;48.708;9.710;2024-02-15T01:49:27;98054.94;;;8.21;100.00
76052;BME280;64751;48.708;9.710;2024-02-15T01:51:56;98054.09;;;8.16;100.00
76052;BME280;64751;48.708;9.710;2024-02-15T01:54:29;98051.16;;;8.12;100.00
76052;BME280;64751;48.708;9.710;2024-02-15T01:56:57;98050.88;;;8.09;100.00
76052;BME280;64751;48.708;9.710;2024-02-15T01:59:30;98047.44;;;8.08;100.00
76052;BME280;64751;48.708;9.710;2024-02-15T02:02:04;98048.19;;;8.03;100.00
76052;BME280;64751;48.708;9.710;2024-02-15T02:04:42;98042.88;;;7.98;100.00
76052;BME280;64751;48.708;9.710;2024-02-15T02:07:09;98047.28;;;7.93;100.00
76052;BME280;64751;48.708;9.710;2024-02-15T02:09:37;98041.72;;;7.89;100.00
76052;BME280;64751;48.708;9.710;2024-02-15T02:12:05;98042.44;;;7.85;100.00
76052;BME280;64751;48.708;9.710;2024-02-15T02:14:38;98049.25;;;7.81;100.00
76052;BME280;64751;48.708;9.710;2024-02-15T02:17:12;98049.25;;;7.81;100.00
76052;BME280;64751;48.708;9.710;2024-02-15T02:19:42;98047.09;;;7.78;100.00
76052;BME280;64751;48.708;9.710;2024-02-15T02:22:10;98052.88;;;7.75;100.00
76052;BME280;64751;48.708;9.710;2024-02-15T02:25:01;98050.16;;;7.70;100.00
76052;BME280;64751;48.708;9.710;2024-02-15T02:27:32;98046.94;;;7.63;100.00
76052;BME280;64751;48.708;9.710;2024-02-15T02:29:59;98050.84;;;7.60;100.00
76052;BME280;64751;48.708;9.710;2024-02-15T02:32:32;98045.28;;;7.57;100.00
76052;BME280;64751;48.708;9.710;2024-02-15T02:35:07;98045.28;;;7.57;100.00
76052;BME280;64751;48.708;9.710;2024-02-15T02:37:37;98049.75;;;7.56;100.00
76052;BME280;64751;48.708;9.710;2024-02-15T02:40:12;98043.63;;;7.51;100.00
76052;BME280;64751;48.708;9.710;2024-02-15T02:42:52;98046.00;;;7.52;100.00
76052;BME280;64751;48.708;9.710;2024-02-15T02:45:27;98046.00;;;7.52;100.00
76052;BME280;64751;48.708;9.710;2024-02-15T02:47:54;98049.91;;;7.50;100.00
76052;BME280;64751;48.708;9.710;2024-02-15T02:50:27;98045.72;;;7.49;100.00
76052;BME280;64751;48.708;9.710;2024-02-15T02:52:59;98049.38;;;7.48;100.00
76052;BME280;64751;48.708;9.710;2024-02-15T02:55:33;98052.28;;;7.51;100.00
76052;BME280;64751;48.708;9.710;2024-02-15T02:58:06;98050.16;;;7.48;100.00
76052;BME280;64751;48.708;9.710;2024-02-15T03:00:34;98045.41;;;7.45;100.00
76052;BME280;64751;48.708;9.710;2024-02-15T03:03:03;98047.53;;;7.48;100.00
76052;BME280;64751;48.708;9.710;2024-02-15T03:05:31;98046.75;;;7.48;100.00
76052;BME280;64751;48.708;9.710;2024-02-15T03:08:04;98050.47;;;7.52;100.00
76052;BME280;64751;48.708;9.710;2024-02-15T03:10:41;98052.06;;;7.53;100.00
76052;BME280;64751;48.708;9.710;2024-02-15T03:13:14;98046.00;;;7.52;100.00
76052;BME280;64751;48.708;9.710;2024-02-15T03:15:46;98045.22;;;7.52;100.00
76052;BME280;64751;48.708;9.710;2024-02-15T03:18:14;98041.31;;;7.54;100.00
76052;BME280;64751;48.708;9.710;2024-02-15T03:20:42;98045.53;;;7.55;100.00
76052;BME280;64751;48.708;9.710;2024-02-15T03:23:14;98042.66;;;7.57;100.00
76052;BME280;64751;48.708;9.710;2024-02-15T03:25:43;98047.09;;;7.56;100.00
76052;BME280;64751;48.708;9.710;2024-02-15T03:28:10;98052.13;;;7.58;100.00
76052;BME280;64751;48.708;9.710;2024-02-15T03:30:43;98047.38;;;7.55;100.00
76052;BME280;64751;48.708;9.710;2024-02-15T03:33:15;98050.53;;;7.57;100.00
76052;BME280;64751;48.708;9.710;2024-02-15T03:35:48;98049.25;;;7.59;100.00
76052;BME280;64751;48.708;9.710;2024-02-15T03:38:20;98045.56;;;7.60;100.00
76052;BME280;64751;48.708;9.710;2024-02-15T03:40:49;98041.06;;;7.56;100.00
76052;BME280;64751;48.708;9.710;2024-02-15T03:43:16;98036.34;;;7.58;100.00
76052;BME280;64751;48.708;9.710;2024-02-15T03:45:49;98042.66;;;7.57;100.00
76052;BME280;64751;48.708;9.710;2024-02-15T03:48:22;98034.28;;;7.60;100.00
76052;BME280;64751;48.708;9.710;2024-02-15T03:50:49;98036.66;;;7.61;100.00
76052;BME280;64751;48.708;9.710;2024-02-15T03:53:17;98042.72;;;7.62;100.00
76052;BME280;64751;48.708;9.710;2024-02-15T03:55:44;98047.09;;;7.56;100.00
76052;BME280;64751;48.708;9.710;2024-02-15T03:58:13;98053.41;;;7.55;100.00
76052;BME280;64751;48.708;9.710;2024-02-15T04:00:46;98058.44;;;7.57;100.00
76052;BME280;64751;48.708;9.710;2024-02-15T04:03:18;98048.94;;;7.56;100.00
76052;BME280;64751;48.708;9.710;2024-02-15T04:05:45;98050.53;;;7.57;100.00
76052;BME280;64751;48.708;9.710;2024-02-15T04:08:19;98051.00;;;7.54;100.00
76052;BME280;64751;48.708;9.710;2024-02-15T04:10:51;98047.03;;;7.51;100.00
76052;BME280;64751;48.708;9.710;2024-02-15T04:13:20;98055.00;;;7.56;100.00
76052;BME280;64751;48.708;9.710;2024-02-15T04:15:53;98048.94;;;7.56;100.00
76052;BME280;64751;48.708;9.710;2024-02-15T04:18:20;98041.06;;;7.56;100.00
76052;BME280;64751;48.708;9.710;2024-02-15T04:20:53;98047.03;;;7.51;100.00
76052;BME280;64751;48.708;9.710;2024-02-15T04:23:25;98048.81;;;7.46;100.00
76052;BME280;64751;48.708;9.710;2024-02-15T04:25:53;98044.38;;;7.46;100.00
76052;BME280;64751;48.708;9.710;2024-02-15T04:28:26;98044.38;;;7.46;100.00
76052;BME280;64751;48.708;9.710;2024-02-15T04:30:59;98042.47;;;7.42;100.00
76052;BME280;64751;48.708;9.710;2024-02-15T04:33:31;98050.81;;;7.39;100.00
76052;BME280;64751;48.708;9.710;2024-02-15T04:35:58;98054.97;;;7.35;100.00
76052;BME280;64751;48.708;9.710;2024-02-15T04:38:28;98048.38;;;7.32;100.00
76052;BME280;64751;48.708;9.710;2024-02-15T04:41:00;98043.94;;;7.32;100.00
76052;BME280;64751;48.708;9.710;2024-02-15T04:43:31;98043.38;;;7.30;100.00
76052;BME280;64751;48.708;9.710;2024-02-15T04:45:59;98045.94;;;7.25;100.00
76052;BME280;64751;48.708;9.710;2024-02-15T04:48:27;98046.19;;;7.24;100.00
76052;BME280;64751;48.708;9.710;2024-02-15T04:50:56;98047.38;;;7.16;100.00
76052;BME280;64751;48.708;9.710;2024-02-15T04:53:25;98050.47;;;7.13;100.00
76052;BME280;64751;48.708;9.710;2024-02-15T04:55:57;98054.31;;;7.06;100.00
76052;BME280;64751;48.708;9.710;2024-02-15T04:58:27;98056.16;;;7.05;100.00
76052;BME280;64751;48.708;9.710;2024-02-15T05:00:56;98055.50;;;6.98;100.00
76052;BME280;64751;48.708;9.710;2024-02-15T05:03:31;98058.94;;;6.99;100.00
76052;BME280;64751;48.708;9.710;2024-02-15T05:06:00;98052.25;;;6.91;100.00
76052;BME280;64751;48.708;9.710;2024-02-15T05:08:31;98049.78;;;6.85;100.00
76052;BME280;64751;48.708;9.710;2024-02-15T05:11:04;98046.31;;;6.79;100.00
76052;BME280;64751;48.708;9.710;2024-02-15T05:13:32;98025.31;;;6.63;100.00
76052;BME280;64751;48.708;9.710;2024-02-15T05:16:01;98042.41;;;6.65;100.00
76052;BME280;64751;48.708;9.710;2024-02-15T05:18:33;98046.75;;;6.59;100.00
76052;BME280;64751;48.708;9.710;2024-02-15T05:21:06;98043.03;;;6.55;100.00
76052;BME280;64751;48.708;9.710;2024-02-15T05:23:40;98042.16;;;6.50;100.00
76052;BME280;64751;48.708;9.710;2024-02-15T05:26:11;98042.72;;;6.52;100.00
76052;BME280;64751;48.708;9.710;2024-02-15T05:28:46;98044.59;;;6.40;100.00
76052;BME280;64751;48.708;9.710;2024-02-15T05:31:16;98033.81;;;6.36;100.00
76052;BME280;64751;48.708;9.710;2024-02-15T05:33:44;98039.75;;;6.32;100.00
76052;BME280;64751;48.708;9.710;2024-02-15T05:36:20;98036.34;;;6.31;100.00
76052;BME280;64751;48.708;9.710;2024-02-15T05:38:53;98034.44;;;6.27;100.00
76052;BME280;64751;48.708;9.710;2024-02-15T05:41:26;98036.25;;;6.26;100.00
76052;BME280;64751;48.708;9.710;2024-02-15T05:43:53;98034.56;;;6.20;100.00
76052;BME280;64751;48.708;9.710;2024-02-15T05:46:22;98044.25;;;6.20;100.00
76052;BME280;64751;48.708;9.710;2024-02-15T05:48:54;98042.50;;;6.09;100.00
76052;BME280;64751;48.708;9.710;2024-02-15T05:51:27;98040.13;;;6.07;100.00
76052;BME280;64751;48.708;9.710;2024-02-15T05:53:54;98049.31;;;6.10;100.00
76052;BME280;64751;48.708;9.710;2024-02-15T05:56:29;98050.16;;;5.99;100.00
76052;BME280;64751;48.708;9.710;2024-02-15T05:59:02;98045.06;;;5.92;100.00
76052;BME280;64751;48.708;9.710;2024-02-15T06:01:42;98042.22;;;5.94;100.00
76052;BME280;64751;48.708;9.710;2024-02-15T06:04:10;98032.28;;;5.96;100.00
76052;BME280;64751;48.708;9.710;2024-02-15T06:06:44;98041.66;;;5.92;100.00
76052;BME280;64751;48.708;9.710;2024-02-15T06:09:14;98044.03;;;5.93;100.00
76052;BME280;64751;48.708;9.710;2024-02-15T06:11:42;98044.75;;;5.89;100.00
76052;BME280;64751;48.708;9.710;2024-02-15T06:14:16;98032.19;;;5.79;100.00
76052;BME280;64751;48.708;9.710;2024-02-15T06:16:45;98035.38;;;5.81;100.00
76052;BME280;64751;48.708;9.710;2024-02-15T06:19:17;98038.03;;;5.69;100.00
76052;BME280;64751;48.708;9.710;2024-02-15T06:21:44;98031.41;;;5.78;100.00
76052;BME280;64751;48.708;9.710;2024-02-15T06:24:18;98041.97;;;5.83;100.00
76052;BME280;64751;48.708;9.710;2024-02-15T06:26:50;98042.81;;;5.84;100.00
76052;BME280;64751;48.708;9.710;2024-02-15T06:29:28;98034.59;;;5.80;100.00
76052;BME280;64751;48.708;9.710;2024-02-15T06:32:19;98037.56;;;5.84;100.00
76052;BME280;64751;48.708;9.710;2024-02-15T06:35:19;98043.38;;;5.74;98.77
76052;BME280;64751;48.708;9.710;2024-02-15T06:38:03;98040.88;;;5.79;100.00
76052;BME280;64751;48.708;9.710;2024-02-15T06:40:48;98049.84;;;5.83;100.00
76052;BME280;64751;48.708;9.710;2024-02-15T06:43:21;98055.09;;;5.83;100.00
76052;BME280;64751;48.708;9.710;2024-02-15T06:45:53;98048.28;;;5.82;100.00
76052;BME280;64751;48.708;9.710;2024-02-15T06:48:22;98048.94;;;5.90;100.00
76052;BME280;64751;48.708;9.710;2024-02-15T06:50:51;98050.84;;;5.94;100.00
76052;BME280;64751;48.708;9.710;2024-02-15T06:53:23;98050.16;;;5.99;100.00
76052;BME280;64751;48.708;9.710;2024-02-15T06:55:56;98053.38;;;6.01;100.00
76052;BME280;64751;48.708;9.710;2024-02-15T06:58:28;98048.13;;;6.01;100.00
76052;BME280;64751;48.708;9.710;2024-02-15T07:00:56;98050.03;;;6.05;100.00
76052;BME280;64751;48.708;9.710;2024-02-15T07:03:25;98053.13;;;6.02;100.00
76052;BME280;64751;48.708;9.710;2024-02-15T07:05:52;98047.41;;;6.05;100.00
76052;BME280;64751;48.708;9.710;2024-02-15T07:08:25;98055.03;;;6.07;100.00
76052;BME280;64751;48.708;9.710;2024-02-15T07:10:52;98047.84;;;6.14;100.00
76052;BME280;64751;48.708;9.710;2024-02-15T07:13:20;98045.53;;;6.17;100.00
76052;BME280;64751;48.708;9.710;2024-02-15T07:15:54;98049.19;;;6.16;100.00
76052;BME280;64751;48.708;9.710;2024-02-15T07:18:21;98045.53;;;6.17;100.00
76052;BME280;64751;48.708;9.710;2024-02-15T07:20:51;98042.09;;;6.17;100.00
76052;BME280;64751;48.708;9.710;2024-02-15T07:23:24;98035.03;;;6.17;100.00
76052;BME280;64751;48.708;9.710;2024-02-15T07:25:52;98032.75;;;6.21;100.00
76052;BME280;64751;48.708;9.710;2024-02-15T07:28:20;98036.72;;;6.23;100.00
76052;BME280;64751;48.708;9.710;2024-02-15T07:30:47;98036.50;;;6.25;100.00
76052;BME280;64751;48.708;9.710;2024-02-15T07:33:22;98029.50;;;6.30;100.00
76052;BME280;64751;48.708;9.710;2024-02-15T07:35:51;98032.44;;;6.34;100.00
76052;BME280;64751;48.708;9.710;2024-02-15T07:38:24;98029.69;;;6.40;100.00
76052;BME280;64751;48.708;9.710;2024-02-15T07:40:52;98033.09;;;6.41;100.00
76052;BME280;64751;48.708;9.710;2024-02-15T07:43:19;98036.69;;;6.51;100.00
76052;BME280;64751;48.708;9.710;2024-02-15T07:45:47;98028.09;;;6.56;100.00
76052;BME280;64751;48.708;9.710;2024-02-15T07:48:15;98033.03;;;6.69;100.00
76052;BME280;64751;48.708;9.710;2024-02-15T07:50:43;98029.22;;;6.77;100.00
76052;BME280;64751;48.708;9.710;2024-02-15T07:53:17;98028.00;;;6.84;100.00
76052;BME280;64751;48.708;9.710;2024-02-15T07:55:45;98035.22;;;6.94;100.00
76052;BME280;64751;48.708;9.710;2024-02-15T07:58:19;98020.91;;;7.01;100.00
76052;BME280;64751;48.708;9.710;2024-02-15T08:00:48;98029.97;;;7.10;100.00
76052;BME280;64751;48.708;9.710;2024-02-15T08:03:15;98029.00;;;7.16;100.00
76052;BME280;64751;48.708;9.710;2024-02-15T08:05:43;98027.22;;;7.22;100.00
76052;BME280;64751;48.708;9.710;2024-02-15T08:08:16;98023.13;;;7.31;100.00
76052;BME280;64751;48.708;9.710;2024-02-15T08:10:44;98024.84;;;7.42;100.00
76052;BME280;64751;48.708;9.710;2024-02-15T08:13:12;98015.28;;;7.53;100.00
76052;BME280;64751;48.708;9.710;2024-02-15T08:15:42;98014.34;;;7.64;100.00
76052;BME280;64751;48.708;9.710;2024-02-15T08:18:10;98009.19;;;7.74;100.00
76052;BME280;64751;48.708;9.710;2024-02-15T08:20:38;97994.59;;;7.83;100.00
76052;BME280;64751;48.708;9.710;2024-02-15T08:23:11;97995.78;;;7.97;100.00
76052;BME280;64751;48.708;9.710;2024-02-15T08:25:40;97987.22;;;8.07;100.00
76052;BME280;64751;48.708;9.710;2024-02-15T08:28:07;97977.56;;;8.17;100.00
76052;BME280;64751;48.708;9.710;2024-02-15T08:30:40;97979.00;;;8.30;100.00
76052;BME280;64751;48.708;9.710;2024-02-15T08:33:07;97959.88;;;8.39;100.00
76052;BME280;64751;48.708;9.710;2024-02-15T08:35:42;97954.72;;;8.54;100.00
76052;BME280;64751;48.708;9.710;2024-02-15T08:38:14;97953.53;;;8.67;100.00
76052;BME280;64751;48.708;9.710;2024-02-15T08:40:46;97943.56;;;8.79;100.00
76052;BME280;64751;48.708;9.710;2024-02-15T08:43:18;97944.44;;;8.90;100.00
76052;BME280;64751;48.708;9.710;2024-02-15T08:45:46;97934.72;;;8.95;100.00
76052;BME280;64751;48.708;9.710;2024-02-15T08:48:19;97932.16;;;9.05;100.00
76052;BME280;64751;48.708;9.710;2024-02-15T08:50:53;97929.28;;;9.17;100.00
76052;BME280;64751;48.708;9.710;2024-02-15T08:53:26;97926.69;;;9.27;100.00
76052;BME280;64751;48.708;9.710;2024-02-15T08:56:00;97923.31;;;9.36;100.00
76052;BME280;64751;48.708;9.710;2024-02-15T08:58:32;97924.94;;;9.47;100.00
76052;BME280;64751;48.708;9.710;2024-02-15T09:01:00;97927.34;;;9.59;99.12
76052;BME280;64751;48.708;9.710;2024-02-15T09:03:34;97923.13;;;9.73;98.28
76052;BME280;64751;48.708;9.710;2024-02-15T09:06:02;97937.69;;;9.86;98.80
76052;BME280;64751;48.708;9.710;2024-02-15T09:08:31;97934.78;;;9.97;96.92
76052;BME280;64751;48.708;9.710;2024-02-15T09:11:05;97927.41;;;10.09;95.96
76052;BME280;64751;48.708;9.710;2024-02-15T09:13:32;97931.66;;;10.20;95.59
76052;BME280;64751;48.708;9.710;2024-02-15T09:16:03;97916.34;;;10.33;93.81
76052;BME280;64751;48.708;9.710;2024-02-15T09:18:36;97916.09;;;10.39;92.88
76052;BME280;64751;48.708;9.710;2024-02-15T09:21:09;97919.25;;;10.46;90.86
76052;BME280;64751;48.708;9.710;2024-02-15T09:23:36;97915.78;;;10.56;90.38
76052;BME280;64751;48.708;9.710;2024-02-15T09:26:11;97909.97;;;10.64;88.90
76052;BME280;64751;48.708;9.710;2024-02-15T09:28:43;97914.75;;;10.67;88.24
76052;BME280;64751;48.708;9.710;2024-02-15T09:31:12;97907.59;;;10.67;87.71
76052;BME280;64751;48.708;9.710;2024-02-15T09:33:44;97914.72;;;10.72;87.57
76052;BME280;64751;48.708;9.710;2024-02-15T09:36:17;97908.91;;;10.75;87.76
76052;BME280;64751;48.708;9.710;2024-02-15T09:38:49;97909.94;;;10.79;87.67
76052;BME280;64751;48.708;9.710;2024-02-15T09:41:18;97902.00;;;10.84;87.20
76052;BME280;64751;48.708;9.710;2024-02-15T09:43:45;97906.75;;;10.87;86.79
76052;BME280;64751;48.708;9.710;2024-02-15T09:46:14;97905.69;;;10.93;86.58
76052;BME280;64751;48.708;9.710;2024-02-15T09:48:50;97908.03;;;11.00;84.69
76052;BME280;64751;48.708;9.710;2024-02-15T09:51:25;97906.44;;;11.04;84.40
76052;BME280;64751;48.708;9.710;2024-02-15T09:53:59;97900.88;;;11.05;84.03
76052;BME280;64751;48.708;9.710;2024-02-15T09:56:30;97892.94;;;11.05;82.65
76052;BME280;64751;48.708;9.710;2024-02-15T09:58:59;97884.16;;;11.20;80.70
76052;BME280;64751;48.708;9.710;2024-02-15T10:01:30;97898.69;;;11.27;80.17
76052;BME280;64751;48.708;9.710;2024-02-15T10:04:05;97893.34;;;11.32;78.49
76052;BME280;64751;48.708;9.710;2024-02-15T10:06:33;97899.94;;;11.35;77.36
76052;BME280;64751;48.708;9.710;2024-02-15T10:09:23;97894.38;;;11.41;75.69
76052;BME280;64751;48.708;9.710;2024-02-15T10:11:55;97892.50;;;11.47;75.76
76052;BME280;64751;48.708;9.710;2024-02-15T10:14:29;97896.72;;;11.48;76.04
76052;BME280;64751;48.708;9.710;2024-02-15T10:17:06;97890.03;;;11.60;74.05
76052;BME280;64751;48.708;9.710;2024-02-15T10:19:40;97891.88;;;11.65;74.55
76052;BME280;64751;48.708;9.710;2024-02-15T10:22:15;97887.34;;;11.71;73.15
76052;BME280;64751;48.708;9.710;2024-02-15T10:24:47;97885.19;;;11.78;72.80
76052;BME280;64751;48.708;9.710;2024-02-15T10:27:23;97879.91;;;11.78;73.81
76052;BME280;64751;48.708;9.710;2024-02-15T10:29:50;97882.00;;;11.81;74.32
76052;BME280;64751;48.708;9.710;2024-02-15T10:32:34;97874.03;;;11.86;73.72
76052;BME280;64751;48.708;9.710;2024-02-15T10:35:01;97866.84;;;11.91;73.67
76052;BME280;64751;48.708;9.710;2024-02-15T10:37:35;97865.47;;;11.99;73.61
76052;BME280;64751;48.708;9.710;2024-02-15T10:40:08;97860.09;;;12.04;72.57
76052;BME280;64751;48.708;9.710;2024-02-15T10:42:43;97853.78;;;12.00;73.17
76052;BME280;64751;48.708;9.710;2024-02-15T10:45:17;97845.53;;;12.06;73.21
76052;BME280;64751;48.708;9.710;2024-02-15T10:47:45;97847.53;;;12.19;73.07
76052;BME280;64751;48.708;9.710;2024-02-15T10:50:18;97838.53;;;12.20;71.80
76052;BME280;64751;48.708;9.710;2024-02-15T10:52:53;97833.75;;;12.22;71.55
76052;BME280;64751;48.708;9.710;2024-02-15T10:55:29;97835.84;;;12.25;72.29
76052;BME280;64751;48.708;9.710;2024-02-15T10:58:07;97826.56;;;12.28;71.89
76052;BME280;64751;48.708;9.710;2024-02-15T11:00:35;97831.84;;;12.28;73.42
76052;BME280;64751;48.708;9.710;2024-02-15T11:03:13;97825.13;;;12.35;71.65
76052;BME280;64751;48.708;9.710;2024-02-15T11:05:46;97828.59;;;12.36;71.83
76052;BME280;64751;48.708;9.710;2024-02-15T11:08:14;97823.53;;;12.40;71.97
76052;BME280;64751;48.708;9.710;2024-02-15T11:10:48;97818.50;;;12.38;71.99
76052;BME280;64751;48.708;9.710;2024-02-15T11:13:17;97824.81;;;12.42;72.34
76052;BME280;64751;48.708;9.710;2024-02-15T11:15:49;97811.56;;;12.42;72.33
76052;BME280;64751;48.708;9.710;2024-02-15T11:18:44;97816.84;;;12.42;72.74
76052;BME280;64751;48.708;9.710;2024-02-15T11:21:52;97805.25;;;12.38;72.76
76052;BME280;64751;48.708;9.710;2024-02-15T11:24:26;97807.31;;;12.46;73.62
76052;BME280;64751;48.708;9.710;2024-02-15T11:26:58;97806.72;;;12.49;71.38
76052;BME280;64751;48.708;9.710;2024-02-15T11:29:52;97805.41;;;12.47;71.82
76052;BME280;64751;48.708;9.710;2024-02-15T11:32:42;97799.56;;;12.50;71.49
76052;BME280;64751;48.708;9.710;2024-02-15T11:35:21;97782.81;;;12.54;71.15
76052;BME280;64751;48.708;9.710;2024-02-15T11:37:58;97782.47;;;12.61;71.02
76052;BME280;64751;48.708;9.710;2024-02-15T11:41:02;97792.97;;;12.71;70.60
76052;BME280;64751;48.708;9.710;2024-02-15T11:43:52;97792.41;;;12.74;70.38
76052;BME280;64751;48.708;9.710;2024-02-15T11:46:33;97790.53;;;12.74;70.70
76052;BME280;64751;48.708;9.710;2024-02-15T11:49:01;97778.94;;;12.70;71.09
76052;BME280;64751;48.708;9.710;2024-02-15T11:51:31;97777.50;;;12.78;70.52
76052;BME280;64751;48.708;9.710;2024-02-15T11:54:04;97767.69;;;12.78;70.65
76052;BME280;64751;48.708;9.710;2024-02-15T11:56:48;97768.38;;;12.89;71.30
76052;BME280;64751;48.708;9.710;2024-02-15T11:59:18;97768.06;;;12.90;70.25
76052;BME280;64751;48.708;9.710;2024-02-15T12:02:03;97767.00;;;12.91;70.33
76052;BME280;64751;48.708;9.710;2024-02-15T12:04:52;97767.16;;;13.00;69.91
76052;BME280;64751;48.708;9.710;2024-02-15T12:07:42;97775.88;;;13.00;71.13
76052;BME280;64751;48.708;9.710;2024-02-15T12:10:32;97759.72;;;13.02;69.85
76052;BME280;64751;48.708;9.710;2024-02-15T12:13:17;97757.56;;;13.04;69.98
76052;BME280;64751;48.708;9.710;2024-02-15T12:16:07;97756.13;;;13.12;69.85
76052;BME280;64751;48.708;9.710;2024-02-15T12:18:58;97764.09;;;13.12;69.20
76052;BME280;64751;48.708;9.710;2024-02-15T12:21:27;97757.88;;;13.21;69.86
76052;BME280;64751;48.708;9.710;2024-02-15T12:24:01;97743.81;;;13.21;69.58
76052;BME280;64751;48.708;9.710;2024-02-15T12:26:34;97744.41;;;13.18;69.67
76052;BME280;64751;48.708;9.710;2024-02-15T12:29:02;97739.88;;;13.18;68.95
76052;BME280;64751;48.708;9.710;2024-02-15T12:31:30;97744.31;;;13.23;69.16
76052;BME280;64751;48.708;9.710;2024-02-15T12:34:05;97745.03;;;13.28;69.41
76052;BME280;64751;48.708;9.710;2024-02-15T12:36:32;97748.59;;;13.37;69.16
76052;BME280;64751;48.708;9.710;2024-02-15T12:39:08;97743.00;;;13.39;68.79
76052;BME280;64751;48.708;9.710;2024-02-15T12:41:38;97738.69;;;13.43;68.55
76052;BME280;64751;48.708;9.710;2024-02-15T12:44:15;97739.72;;;13.47;68.49
76052;BME280;64751;48.708;9.710;2024-02-15T12:46:53;97729.28;;;13.50;69.10
76052;BME280;64751;48.708;9.710;2024-02-15T12:49:29;97723.69;;;13.52;68.53
76052;BME280;64751;48.708;9.710;2024-02-15T12:52:37;97717.81;;;13.55;69.57
76052;BME280;64751;48.708;9.710;2024-02-15T12:55:12;97717.25;;;13.58;69.49
76052;BME280;64751;48.708;9.710;2024-02-15T12:57:40;97706.81;;;13.61;68.83
76052;BME280;64751;48.708;9.710;2024-02-15T13:00:11;97709.16;;;13.63;69.61
76052;BME280;64751;48.708;9.710;2024-02-15T13:02:50;97696.91;;;13.67;69.18
76052;BME280;64751;48.708;9.710;2024-02-15T13:05:25;97692.69;;;13.66;69.17
76052;BME280;64751;48.708;9.710;2024-02-15T13:07:58;97694.75;;;13.69;68.62
76052;BME280;64751;48.708;9.710;2024-02-15T13:10:28;97697.97;;;13.66;68.21
76052;BME280;64751;48.708;9.710;2024-02-15T13:12:56;97682.84;;;13.66;69.08
76052;BME280;64751;48.708;9.710;2024-02-15T13:15:28;97676.19;;;13.69;69.10
76052;BME280;64751;48.708;9.710;2024-02-15T13:18:04;97680.88;;;13.72;69.08
76052;BME280;64751;48.708;9.710;2024-02-15T13:20:42;97666.47;;;13.78;68.80
76052;BME280;64751;48.708;9.710;2024-02-15T13:23:14;97659.47;;;13.82;68.20
76052;BME280;64751;48.708;9.710;2024-02-15T13:25:50;97659.00;;;13.80;68.50
76052;BME280;64751;48.708;9.710;2024-02-15T13:28:18;97654.66;;;13.84;69.60